MOL Paramount — 3ECH9 — position and weather

sailwx.info

Track history (hours):
 
Tides and Currents Weather Stations Pressure Air Temp Water Temp Dewpoint Dewpoint Depression Visibility Wind Speed Wind Dir Waves Ship Positions

MOL Paramount

Last reported at 2014-Sep-17 00:21 UTC. Time now 2014-Sep-21 04:08 UTC.
Position N 31°00' E 032°19'.

Length 293 m; draft 12.6 m.

Type: Cargo ship. MMSI: 371519000.

Date/timePositionNaut miles runAvg speedWind from/ knotsBaromVisibWave heightAir tempDewpointWater temp
2014-Sep-17 00:21N 31°00' E 032°19'7 9.2
2014-Sep-16 23:33N 31°08' E 032°19'20 2.5
2014-Sep-16 15:20N 31°28' E 032°15'8 8.0
2014-Sep-16 14:18N 31°34' E 032°09'  
2014-Sep-13 21:34N 36°08' E 015°10'1414.0
2014-Sep-13 20:31N 36°13' E 014°53'1313.9
2014-Sep-13 19:33N 36°18' E 014°37'1413.8
2014-Sep-13 18:34N 36°21' E 014°20'1514.5
2014-Sep-13 17:32N 36°25' E 014°03'1515.0
2014-Sep-13 16:33N 36°29' E 013°45'1615.6
2014-Sep-13 15:33N 36°34' E 013°27'1514.7
2014-Sep-13 14:34N 36°39' E 013°09'1714.7
2014-Sep-13 13:23N 36°45' E 012°49'1514.8
2014-Sep-13 12:21N 36°50' E 012°31'2714.3
2014-Sep-13 10:27N 37°02' E 012°01'1513.3
2014-Sep-13 09:22N 37°07' E 011°44'1213.4
2014-Sep-13 08:29N 37°13' E 011°31'41313.7
2014-Sep-12 02:16N 37°04' E 002°53'1014.4
2014-Sep-12 01:33N 37°03' E 002°40'1413.9
2014-Sep-12 00:33N 37°00' E 002°23'1313.5
2014-Sep-11 23:33N 36°58' E 002°06'1313.2
2014-Sep-11 22:33N 36°56' E 001°50'1413.4
2014-Sep-11 21:33N 36°54' E 001°33'1717.1
2014-Sep-11 20:33N 36°51' E 001°12'1918.7
2014-Sep-11 19:33N 36°47' E 000°49'1414.1
2014-Sep-11 18:33N 36°45' E 000°32'1313.7
2014-Sep-11 17:33N 36°43' E 000°15'1813.6
2014-Sep-11 16:15N 36°41' W 000°07'1013.9
2014-Sep-11 15:33N 36°41' W 000°19'1515.0
2014-Sep-11 14:33N 36°40' W 000°38'1614.9
2014-Sep-11 13:28N 36°35' W 000°57'3913.1
2014-Sep-11 10:28N 36°27' W 001°45'4513.6
2014-Sep-11 07:09N 36°18' W 002°40'12714.7
2014-Sep-10 22:33N 35°60' W 005°15'  
Track history (hours):
 
Tides and Currents Weather Stations Pressure Air Temp Water Temp Dewpoint Dewpoint Depression Visibility Wind Speed Wind Dir Waves Ship Positions

MOL Paramount

Last reported at 2014-Sep-17 00:21 UTC. Time now 2014-Sep-21 04:08 UTC.
Position N 31°00' E 032°19'.

Length 293 m; draft 12.6 m.

Type: Cargo ship. MMSI: 371519000.

Date/timePositionNaut miles runAvg speedWind from/ knotsBaromVisibWave heightAir tempDewpointWater temp
2014-Sep-17 00:21N 31°00' E 032°19'7 9.2
2014-Sep-16 23:33N 31°08' E 032°19'20 2.5
2014-Sep-16 15:20N 31°28' E 032°15'8 8.0
2014-Sep-16 14:18N 31°34' E 032°09'  
2014-Sep-13 21:34N 36°08' E 015°10'1414.0
2014-Sep-13 20:31N 36°13' E 014°53'1313.9
2014-Sep-13 19:33N 36°18' E 014°37'1413.8
2014-Sep-13 18:34N 36°21' E 014°20'1514.5
2014-Sep-13 17:32N 36°25' E 014°03'1515.0
2014-Sep-13 16:33N 36°29' E 013°45'1615.6
2014-Sep-13 15:33N 36°34' E 013°27'1514.7
2014-Sep-13 14:34N 36°39' E 013°09'1714.7
2014-Sep-13 13:23N 36°45' E 012°49'1514.8
2014-Sep-13 12:21N 36°50' E 012°31'2714.3
2014-Sep-13 10:27N 37°02' E 012°01'1513.3
2014-Sep-13 09:22N 37°07' E 011°44'1213.4
2014-Sep-13 08:29N 37°13' E 011°31'41313.7
2014-Sep-12 02:16N 37°04' E 002°53'1014.4
2014-Sep-12 01:33N 37°03' E 002°40'1413.9
2014-Sep-12 00:33N 37°00' E 002°23'1313.5
2014-Sep-11 23:33N 36°58' E 002°06'1313.2
2014-Sep-11 22:33N 36°56' E 001°50'1413.4
2014-Sep-11 21:33N 36°54' E 001°33'1717.1
2014-Sep-11 20:33N 36°51' E 001°12'1918.7
2014-Sep-11 19:33N 36°47' E 000°49'1414.1
2014-Sep-11 18:33N 36°45' E 000°32'1313.7
2014-Sep-11 17:33N 36°43' E 000°15'1813.6
2014-Sep-11 16:15N 36°41' W 000°07'1013.9
2014-Sep-11 15:33N 36°41' W 000°19'1515.0
2014-Sep-11 14:33N 36°40' W 000°38'1614.9
2014-Sep-11 13:28N 36°35' W 000°57'3913.1
2014-Sep-11 10:28N 36°27' W 001°45'4513.6
2014-Sep-11 07:09N 36°18' W 002°40'12714.7
2014-Sep-10 22:33N 35°60' W 005°15'  

Dump ship's entire track history